Time;durP1;ratioP1;P1;durP2;ratioP2;P2;SDS_P1;SDS_P2;PMS_P1;PMS_P2;Temp;Humidity;BMP_temperature;BMP_pressure;BME280_temperature;BME280_humidity;BME280_pressure;Samples;Min_cycle;Max_cycle;Signal;HPM_P1;HPM_P2
2023/03/07 00:00:42;;;;;;;8.50;2.38;;;0.30;99.90;;;-1.47;86.68;99460.13;4971128;28;20126;-76
2023/03/07 00:03:12;;;;;;;7.50;2.85;;;0.20;99.90;;;-1.53;86.90;99460.22;4960601;28;20050;-76
2023/03/07 00:05:41;;;;;;;4.15;2.15;;;0.20;99.90;;;-1.58;86.83;99456.84;4997374;28;21472;-76
2023/03/07 00:08:07;;;;;;;7.85;2.38;;;0.20;99.90;;;-1.65;87.20;99444.94;4991437;28;20034;-76
2023/03/07 00:10:33;;;;;;;3.33;1.65;;;0.10;99.90;;;-1.68;87.19;99437.25;4983073;28;20038;-76
2023/03/07 00:12:58;;;;;;;7.40;1.73;;;0.10;99.90;;;-1.70;87.28;99433.84;5015145;28;20064;-75
2023/03/07 00:15:24;;;;;;;10.52;2.10;;;0.10;99.90;;;-1.72;88.18;99422.69;4997533;28;20563;-75
2023/03/07 00:17:52;;;;;;;5.22;1.70;;;0.10;99.90;;;-1.72;88.10;99423.56;5002716;28;20418;-78
2023/03/07 00:20:18;;;;;;;4.90;1.90;;;0.10;99.90;;;-1.68;88.27;99421.78;4958553;28;20068;-76
2023/03/07 00:22:45;;;;;;;7.80;2.00;;;0.10;99.90;;;-1.70;88.67;99413.22;4991851;28;20064;-75
2023/03/07 00:25:13;;;;;;;9.77;2.33;;;0.10;99.90;;;-1.71;88.79;99417.50;4987673;28;20041;-75
2023/03/07 00:27:40;;;;;;;10.88;2.63;;;0.10;99.90;;;-1.70;88.75;99413.22;5014975;28;20787;-76
2023/03/07 00:30:10;;;;;;;10.63;2.78;;;0.10;99.90;;;-1.71;88.91;99409.75;4978245;28;20038;-75
2023/03/07 00:32:36;;;;;;;7.82;2.38;;;0.00;99.90;;;-1.72;88.96;99409.81;5008577;28;20032;-76
2023/03/07 00:35:02;;;;;;;8.65;2.30;;;0.10;99.90;;;-1.74;88.98;99409.81;4973765;28;20377;-76
2023/03/07 00:37:29;;;;;;;8.07;2.58;;;0.10;99.90;;;-1.74;88.82;99407.25;4932617;28;20048;-75
2023/03/07 00:39:55;;;;;;;6.45;2.40;;;0.00;99.90;;;-1.71;89.18;99403.75;4995055;28;20123;-76
2023/03/07 00:42:29;;;;;;;6.65;2.60;;;0.00;99.90;;;-1.73;89.52;99405.50;4991813;28;20033;-75
2023/03/07 00:44:54;;;;;;;8.00;2.55;;;0.00;99.90;;;-1.73;89.62;99396.06;4979252;28;20113;-76
2023/03/07 00:47:20;;;;;;;5.80;2.55;;;0.00;99.90;;;-1.75;89.66;99394.34;4983593;28;20040;-75
2023/03/07 00:49:46;;;;;;;5.90;3.05;;;0.10;99.90;;;-1.74;89.78;99396.91;4990632;28;20042;-76
2023/03/07 00:52:12;;;;;;;12.50;2.78;;;0.00;99.90;;;-1.76;89.86;99384.94;5003071;28;20677;-75
2023/03/07 00:54:38;;;;;;;7.68;3.25;;;0.00;99.90;;;-1.74;89.84;99384.00;5005358;28;20055;-76
2023/03/07 00:57:03;;;;;;;7.88;3.25;;;0.00;99.90;;;-1.74;90.19;99378.00;4961137;28;20041;-75
2023/03/07 00:59:29;;;;;;;6.60;3.15;;;0.00;99.90;;;-1.71;90.37;99375.34;4999516;28;20053;-75
2023/03/07 01:01:55;;;;;;;13.23;3.50;;;0.00;99.90;;;-1.70;90.75;99370.19;4976941;28;20355;-75
2023/03/07 01:04:21;;;;;;;11.10;3.40;;;0.00;99.90;;;-1.72;90.83;99358.19;4976804;28;20523;-75
2023/03/07 01:06:47;;;;;;;14.13;3.78;;;0.10;99.90;;;-1.70;91.06;99353.84;4932624;28;20419;-76
2023/03/07 01:09:12;;;;;;;7.93;3.67;;;0.10;99.90;;;-1.70;90.90;99356.44;4987289;28;20211;-75
2023/03/07 01:11:38;;;;;;;10.20;4.40;;;0.10;99.90;;;-1.72;91.04;99351.28;5000534;28;20032;-75
2023/03/07 01:14:08;;;;;;;10.75;4.72;;;0.10;99.90;;;-1.71;91.50;99350.38;4977150;28;20841;-75
2023/03/07 01:16:36;;;;;;;10.68;4.97;;;0.10;99.90;;;-1.68;91.94;99339.19;4991393;28;20037;-75
2023/03/07 01:19:07;;;;;;;9.73;4.70;;;0.10;99.90;;;-1.66;92.05;99337.44;4999720;28;20136;-75
2023/03/07 01:21:39;;;;;;;9.25;5.10;;;0.10;99.90;;;-1.67;92.26;99326.22;5013378;28;20030;-75
2023/03/07 01:24:09;;;;;;;14.73;5.35;;;0.10;99.90;;;-1.66;92.75;99322.78;5002378;28;20766;-75
2023/03/07 01:26:35;;;;;;;10.75;5.55;;;0.10;99.90;;;-1.63;92.88;99321.88;5003154;28;20085;-75
2023/03/07 01:29:04;;;;;;;9.65;5.60;;;0.20;99.90;;;-1.61;92.85;99308.94;4979353;28;20088;-76
2023/03/07 01:31:31;;;;;;;10.10;5.47;;;0.20;99.90;;;-1.59;92.62;99299.44;4980624;28;20114;-75
2023/03/07 01:33:58;;;;;;;11.40;5.72;;;0.20;99.90;;;-1.59;93.09;99300.28;4990544;28;20042;-75
2023/03/07 01:36:31;;;;;;;16.50;6.32;;;0.20;99.90;;;-1.59;93.42;99289.97;4988362;28;20030;-75
2023/03/07 01:39:23;;;;;;;13.23;5.60;;;0.20;99.90;;;-1.58;93.27;99285.63;5005996;28;20557;-75
2023/03/07 01:41:56;;;;;;;13.48;6.07;;;0.20;99.90;;;-1.57;93.63;99271.88;4988740;28;20034;-75
2023/03/07 01:44:27;;;;;;;12.85;5.75;;;0.20;99.90;;;-1.58;93.85;99263.25;4980996;28;20029;-75
2023/03/07 01:46:56;;;;;;;10.50;5.88;;;0.20;99.90;;;-1.58;94.21;99252.91;4980820;28;20487;-75
2023/03/07 01:49:35;;;;;;;8.05;5.20;;;0.20;99.90;;;-1.58;94.51;99247.75;4973444;28;20042;-76
2023/03/07 01:52:13;;;;;;;11.63;5.47;;;0.20;99.90;;;-1.56;94.11;99235.69;4974124;28;20113;-75
2023/03/07 01:54:47;;;;;;;13.85;5.75;;;0.20;99.90;;;-1.60;94.10;99234.03;4962123;28;20534;-75
2023/03/07 01:57:17;;;;;;;11.77;6.07;;;0.20;99.90;;;-1.60;93.99;99226.28;4951983;28;20038;-75
2023/03/07 01:59:48;;;;;;;11.07;6.15;;;0.20;99.90;;;-1.61;94.18;99226.34;4971359;28;20045;-75
2023/03/07 02:02:18;;;;;;;11.65;6.53;;;0.20;99.90;;;-1.66;94.64;99213.53;4976881;28;20046;-75
2023/03/07 02:05:14;;;;;;;12.75;6.53;;;0.20;99.90;;;-1.65;95.05;99197.16;4957068;28;20029;-75
2023/03/07 02:07:48;;;;;;;12.98;6.47;;;0.10;99.90;;;-1.69;95.22;99185.19;4980132;28;20522;-76
2023/03/07 02:10:17;;;;;;;11.95;6.43;;;0.20;99.90;;;-1.70;95.79;99181.78;4969922;28;20046;-75
2023/03/07 02:12:43;;;;;;;12.73;6.75;;;0.20;99.90;;;-1.71;95.44;99174.91;4995582;28;20109;-75
2023/03/07 02:15:13;;;;;;;14.45;6.95;;;0.20;99.90;;;-1.67;95.49;99155.03;5007251;28;20030;-75
2023/03/07 02:17:41;;;;;;;15.85;7.45;;;0.20;99.90;;;-1.66;95.39;99146.44;5003527;28;20662;-75
2023/03/07 02:20:35;;;;;;;14.77;8.38;;;0.20;99.90;;;-1.67;95.38;99139.56;4979939;28;20443;-75
2023/03/07 02:23:03;;;;;;;14.45;8.05;;;0.20;99.90;;;-1.68;95.87;99135.31;4987058;28;20177;-75
2023/03/07 02:25:59;;;;;;;11.57;7.13;;;0.20;99.90;;;-1.64;95.70;99121.44;4967198;28;20062;-75
2023/03/07 02:28:27;;;;;;;13.27;7.25;;;0.20;99.90;;;-1.63;95.88;99124.88;4983914;28;20050;-75
2023/03/07 02:31:06;;;;;;;17.35;6.93;;;0.30;99.90;;;-1.58;96.32;99110.13;4995044;28;20077;-75
2023/03/07 02:33:32;;;;;;;14.90;7.45;;;0.30;99.90;;;-1.59;96.29;99093.78;4986775;28;20026;-75
2023/03/07 02:36:08;;;;;;;12.60;6.57;;;0.30;99.90;;;-1.59;95.86;99087.78;4964188;28;20049;-76
2023/03/07 02:38:36;;;;;;;;;;;0.30;99.90;;;-1.60;96.05;99078.31;4983338;28;20042;-75
2023/03/07 02:41:03;;;;;;;13.98;7.18;;;0.30;99.90;;;-1.57;96.08;99075.69;4977213;28;19940;-75
2023/03/07 02:43:29;;;;;;;14.90;7.40;;;0.30;99.90;;;-1.57;95.62;99073.09;4994159;28;20049;-75
2023/03/07 02:45:54;;;;;;;16.50;7.57;;;0.30;99.90;;;-1.53;95.81;99072.16;4975955;28;20035;-75
2023/03/07 02:48:20;;;;;;;13.38;7.20;;;0.30;99.90;;;-1.52;95.57;99066.09;4962996;28;20038;-75
2023/03/07 02:50:49;;;;;;;13.45;7.80;;;0.30;99.90;;;-1.50;95.56;99064.31;4974132;28;20034;-76
2023/03/07 02:53:15;;;;;;;13.23;7.65;;;0.30;99.90;;;-1.46;95.56;99063.38;4971139;28;20186;-76
2023/03/07 02:55:42;;;;;;;14.07;7.15;;;0.40;99.90;;;-1.41;95.28;99052.94;4987767;28;20488;-75
2023/03/07 02:58:08;;;;;;;15.65;6.95;;;0.40;99.90;;;-1.40;95.67;99042.56;4997483;28;20038;-75
2023/03/07 03:00:35;;;;;;;11.18;6.68;;;0.40;99.90;;;-1.36;95.60;99038.16;4996632;28;20085;-75
2023/03/07 03:03:01;;;;;;;12.07;6.60;;;0.50;99.90;;;-1.36;94.99;99025.25;4989828;28;20499;-75
2023/03/07 03:05:27;;;;;;;12.88;6.38;;;0.50;99.90;;;-1.33;94.67;99009.69;5004083;28;20080;-75
2023/03/07 03:07:53;;;;;;;10.05;6.00;;;0.50;99.90;;;-1.28;94.98;99002.66;4977227;28;20037;-76
2023/03/07 03:10:19;;;;;;;11.40;5.65;;;0.50;99.90;;;-1.23;94.05;98995.66;5014911;28;20051;-76
2023/03/07 03:12:44;;;;;;;13.05;5.15;;;0.60;99.90;;;-1.18;93.38;98991.22;4980632;28;20037;-76
2023/03/07 03:15:11;;;;;;;10.75;5.47;;;0.60;99.90;;;-1.15;93.35;98979.94;4962546;28;20052;-75
2023/03/07 03:17:39;;;;;;;10.95;5.30;;;0.70;99.90;;;-1.11;92.78;98978.97;4971291;28;20046;-75
2023/03/07 03:20:11;;;;;;;13.15;4.22;;;0.70;99.90;;;-1.08;92.27;98971.13;4980728;28;20507;-75
2023/03/07 03:22:41;;;;;;;8.02;4.13;;;0.70;99.90;;;-1.05;91.85;98963.31;4965321;28;20054;-76
2023/03/07 03:25:10;;;;;;;9.90;4.00;;;0.80;99.90;;;-1.02;91.12;98957.22;4976781;28;20047;-76
2023/03/07 03:27:37;;;;;;;7.78;3.60;;;0.80;99.90;;;-0.98;90.80;98943.31;4983434;28;20433;-76
2023/03/07 03:30:09;;;;;;;8.25;4.20;;;0.80;99.90;;;-0.96;89.95;98942.38;4976527;28;20395;-75
2023/03/07 03:32:37;;;;;;;8.05;3.60;;;0.80;99.90;;;-0.93;89.87;98929.41;5014533;28;20045;-75
2023/03/07 03:35:04;;;;;;;10.32;3.67;;;0.80;99.90;;;-0.94;89.49;98926.84;4994214;28;20108;-76
2023/03/07 03:37:31;;;;;;;9.65;3.55;;;0.90;99.90;;;-0.89;89.02;98915.47;4989162;28;20064;-76
2023/03/07 03:39:59;;;;;;;7.47;3.92;;;0.90;99.90;;;-0.88;88.65;98913.75;4999727;28;20045;-76
2023/03/07 03:42:28;;;;;;;6.63;3.15;;;0.90;99.90;;;-0.87;88.25;98900.78;5005061;28;20030;-76
2023/03/07 03:44:53;;;;;;;5.72;3.38;;;1.00;99.90;;;-0.85;87.90;98911.06;4995873;28;20443;-75
2023/03/07 03:47:19;;;;;;;8.20;2.97;;;0.90;99.90;;;-0.85;86.75;98890.41;5004523;28;20034;-76
2023/03/07 03:49:45;;;;;;;7.22;3.58;;;1.00;99.90;;;-0.87;86.73;98887.00;4993810;28;20590;-76
2023/03/07 03:52:11;;;;;;;9.32;3.70;;;0.90;99.90;;;-0.87;86.33;98879.25;4990226;28;20491;-76
2023/03/07 03:54:37;;;;;;;6.75;3.53;;;0.90;99.90;;;-0.87;85.47;98874.94;4957576;28;20159;-77
2023/03/07 03:57:03;;;;;;;8.93;3.95;;;1.00;99.90;;;-0.83;85.53;98875.69;4981915;28;20027;-76
2023/03/07 03:59:29;;;;;;;10.43;4.05;;;1.00;99.90;;;-0.89;85.30;98865.53;4958353;28;20037;-76
2023/03/07 04:01:55;;;;;;;7.68;3.95;;;1.00;99.90;;;-0.86;84.98;98866.31;4996525;28;20152;-76
2023/03/07 04:04:21;;;;;;;9.73;4.32;;;1.00;99.90;;;-0.84;84.92;98864.53;4982665;28;20050;-76
2023/03/07 04:06:47;;;;;;;12.43;4.47;;;1.00;99.90;;;-0.83;84.76;98857.59;4989574;28;20040;-76
2023/03/07 04:09:14;;;;;;;9.95;4.70;;;1.00;99.90;;;-0.77;85.08;98857.44;4995832;28;20581;-76
2023/03/07 04:11:39;;;;;;;10.60;5.55;;;1.00;99.90;;;-0.80;85.43;98849.75;4989884;28;20565;-75
2023/03/07 04:14:05;;;;;;;9.10;5.20;;;1.00;99.90;;;-0.80;85.18;98842.00;4997503;28;20036;-75
2023/03/07 04:16:31;;;;;;;12.85;6.50;;;1.00;99.90;;;-0.85;85.92;98830.97;4981915;28;20112;-76
2023/03/07 04:18:57;;;;;;;14.52;7.07;;;1.00;99.90;;;-0.84;86.45;98827.50;4998618;28;20034;-76
2023/03/07 04:21:23;;;;;;;13.95;7.75;;;1.00;99.90;;;-0.87;87.15;98818.09;5013333;28;20122;-75
2023/03/07 04:23:54;;;;;;;15.88;8.35;;;1.00;99.90;;;-0.91;88.01;98810.47;5007336;28;20118;-76
2023/03/07 04:26:20;;;;;;;15.38;7.90;;;1.00;99.90;;;-0.94;88.52;98801.09;4983132;28;20034;-76
2023/03/07 04:28:48;;;;;;;16.23;9.32;;;0.90;99.90;;;-0.94;89.22;98795.91;5005023;28;20093;-76
2023/03/07 04:31:23;;;;;;;25.15;12.40;;;0.90;99.90;;;-0.95;90.32;98778.75;4999670;28;20121;-76
2023/03/07 04:33:50;;;;;;;24.27;12.80;;;0.90;99.90;;;-0.98;90.81;98777.97;4981640;28;20724;-76
2023/03/07 04:36:17;;;;;;;28.38;14.32;;;0.90;99.90;;;-0.99;91.64;98768.53;5004120;28;20038;-76
2023/03/07 04:38:44;;;;;;;36.63;16.30;;;0.90;99.90;;;-0.99;92.77;98765.94;4973242;28;20101;-76
2023/03/07 04:41:14;;;;;;;32.50;16.58;;;0.90;99.90;;;-1.01;93.60;98763.44;4992849;28;20559;-76
2023/03/07 04:43:40;;;;;;;36.15;18.05;;;0.90;99.90;;;-0.96;94.35;98755.53;5015531;28;20121;-77
2023/03/07 04:46:06;;;;;;;48.80;20.80;;;0.90;99.90;;;-0.98;95.14;98749.56;5014046;28;20095;-76
2023/03/07 04:48:31;;;;;;;52.63;23.48;;;0.80;99.90;;;-1.04;96.09;98740.25;4983130;28;20033;-75
2023/03/07 04:50:57;;;;;;;56.92;24.80;;;0.80;99.90;;;-1.01;96.89;98736.75;4997340;28;21481;-76
2023/03/07 04:53:23;;;;;;;58.92;25.58;;;0.80;99.90;;;-1.07;97.32;98725.69;4982276;28;20034;-76
2023/03/07 04:55:49;;;;;;;65.20;25.83;;;0.80;99.90;;;-1.04;98.22;98714.41;4997676;28;20062;-76
2023/03/07 04:58:15;;;;;;;64.72;27.85;;;0.80;99.90;;;-1.08;98.88;98710.25;4981459;28;20026;-76
2023/03/07 05:00:43;;;;;;;66.72;28.00;;;0.80;99.90;;;-1.16;99.88;98699.34;4992061;28;20572;-76
2023/03/07 05:03:11;;;;;;;75.22;30.38;;;0.70;99.90;;;-1.13;100.00;98702.63;4995363;28;20045;-76
2023/03/07 05:05:38;;;;;;;73.03;31.20;;;0.70;99.90;;;-1.14;100.00;98690.63;4981780;28;20030;-78
2023/03/07 05:08:04;;;;;;;78.35;29.92;;;0.80;99.90;;;-1.12;100.00;98683.69;4984319;28;20026;-76
2023/03/07 05:10:35;;;;;;;86.93;35.15;;;0.80;99.90;;;-1.11;100.00;98677.59;5008379;28;20045;-76
2023/03/07 05:13:00;;;;;;;98.10;35.63;;;0.70;99.90;;;-1.07;100.00;98679.22;4999669;28;20034;-76
2023/03/07 05:15:27;;;;;;;92.95;35.42;;;0.70;99.90;;;-1.06;100.00;98678.31;4992911;28;20042;-76
2023/03/07 05:17:52;;;;;;;95.43;36.97;;;0.80;99.90;;;-1.07;100.00;98668.88;5012373;28;20557;-76
2023/03/07 05:20:18;;;;;;;100.35;36.53;;;0.80;99.90;;;-1.05;100.00;98661.91;5013428;28;20113;-76
2023/03/07 05:22:45;;;;;;;98.70;35.78;;;0.80;99.90;;;-1.11;100.00;98651.78;4992548;28;20072;-75
2023/03/07 05:25:11;;;;;;;108.03;38.42;;;0.80;99.90;;;-1.08;100.00;98654.28;4991749;28;20106;-76
2023/03/07 05:27:37;;;;;;;96.57;36.53;;;0.80;99.90;;;-1.06;100.00;98652.50;5011060;28;20107;-75
2023/03/07 05:30:04;;;;;;;100.50;36.80;;;0.80;99.90;;;-0.97;100.00;98650.47;4990817;28;20092;-75
2023/03/07 05:32:31;;;;;;;105.70;38.78;;;0.80;99.90;;;-0.98;100.00;98649.66;5002305;28;20038;-76
2023/03/07 05:34:57;;;;;;;108.05;38.40;;;0.80;99.90;;;-0.94;100.00;98640.06;4989397;28;20029;-76
2023/03/07 05:37:23;;;;;;;99.70;38.28;;;0.80;99.90;;;-0.96;100.00;98631.53;5006613;28;20706;-75
2023/03/07 05:39:49;;;;;;;104.53;36.05;;;0.90;99.90;;;-0.92;100.00;98628.78;4987083;28;20034;-76
2023/03/07 05:42:15;;;;;;;103.22;37.60;;;0.90;99.90;;;-0.86;100.00;98632.91;5002568;28;20062;-75
2023/03/07 05:44:41;;;;;;;89.28;34.08;;;1.00;99.90;;;-0.76;100.00;98631.69;4997548;28;20030;-75
2023/03/07 05:47:07;;;;;;;90.25;33.25;;;1.00;99.90;;;-0.69;100.00;98617.66;4989050;28;20027;-75
2023/03/07 05:49:35;;;;;;;83.05;33.17;;;1.00;99.90;;;-0.62;100.00;98616.56;4990502;28;20067;-75
2023/03/07 05:52:01;;;;;;;80.53;31.58;;;1.30;99.90;;;-0.56;100.00;98617.22;4999654;28;20031;-76
2023/03/07 05:54:27;;;;;;;83.38;32.13;;;1.20;99.90;;;-0.45;100.00;98615.13;4982762;28;20040;-75
2023/03/07 05:56:53;;;;;;;79.20;30.02;;;1.20;99.90;;;-0.42;100.00;98604.66;4996454;28;20046;-76
2023/03/07 05:59:19;;;;;;;72.60;29.55;;;1.30;99.90;;;-0.35;100.00;98607.88;4995015;28;20046;-76
2023/03/07 06:01:44;;;;;;;80.40;30.20;;;1.30;99.90;;;-0.31;100.00;98607.69;4974983;28;20022;-75
2023/03/07 06:04:10;;;;;;;70.35;28.35;;;1.40;99.90;;;-0.29;100.00;98607.66;4991173;28;20093;-76
2023/03/07 06:06:36;;;;;;;70.63;28.77;;;1.40;99.90;;;-0.31;100.00;98606.88;4994737;28;20515;-76
2023/03/07 06:09:04;;;;;;;69.53;28.75;;;1.40;99.90;;;-0.29;100.00;98600.72;5014900;28;20069;-76
2023/03/07 06:11:33;;;;;;;67.63;28.67;;;1.50;99.90;;;-0.23;100.00;98599.69;5015108;28;20030;-76
2023/03/07 06:13:59;;;;;;;65.38;26.35;;;1.50;99.90;;;-0.19;100.00;98590.03;4984386;28;20533;-76
2023/03/07 06:16:25;;;;;;;62.67;25.60;;;1.50;99.90;;;-0.19;100.00;98579.69;5001036;28;20034;-76
2023/03/07 06:18:51;;;;;;;59.85;25.63;;;1.60;99.90;;;-0.16;100.00;98582.19;4995318;28;20463;-76
2023/03/07 06:21:17;;;;;;;53.42;23.17;;;1.60;99.90;;;-0.14;100.00;98586.41;4992807;28;20041;-75
2023/03/07 06:23:46;;;;;;;51.10;23.25;;;1.60;99.90;;;-0.10;100.00;98585.38;5007528;28;20699;-75
2023/03/07 06:26:12;;;;;;;52.95;23.15;;;1.70;99.90;;;-0.06;100.00;98591.28;5009174;28;20502;-75
2023/03/07 06:28:39;;;;;;;50.78;22.10;;;1.70;99.90;;;-0.04;100.00;98586.91;5016247;28;20093;-76
2023/03/07 06:31:16;;;;;;;48.65;21.27;;;1.70;99.90;;;-0.03;100.00;98593.75;4975576;28;20035;-75
2023/03/07 06:33:43;;;;;;;50.03;21.23;;;1.70;99.90;;;-0.03;100.00;98597.19;4994595;28;20042;-76
2023/03/07 06:36:15;;;;;;;47.63;21.23;;;1.80;99.90;;;-0.01;100.00;98586.78;4985417;28;20128;-76
2023/03/07 06:38:43;;;;;;;42.90;19.30;;;1.80;99.90;;;0.01;100.00;98589.31;5006834;28;20065;-75
2023/03/07 06:41:09;;;;;;;45.08;20.80;;;1.80;99.90;;;0.03;100.00;98590.09;5016943;28;20041;-76
2023/03/07 06:43:35;;;;;;;44.47;20.45;;;1.80;99.90;;;0.02;100.00;98581.47;4993503;28;20389;-75
2023/03/07 06:46:02;;;;;;;42.95;20.25;;;1.80;99.90;;;0.08;100.00;98581.25;4985726;28;20052;-76
2023/03/07 06:48:28;;;;;;;43.25;19.42;;;1.80;99.90;;;0.05;100.00;98589.13;4984411;28;20117;-75
2023/03/07 06:50:56;;;;;;;43.00;19.75;;;1.90;99.90;;;0.13;100.00;98588.84;5015116;28;20097;-75
2023/03/07 06:53:22;;;;;;;47.15;20.67;;;1.90;99.90;;;0.20;100.00;98591.13;5000791;28;20049;-75
2023/03/07 06:55:51;;;;;;;30.75;15.65;;;1.90;99.90;;;0.21;100.00;98581.63;4991022;28;20569;-76
2023/03/07 06:58:18;;;;;;;35.25;16.70;;;1.90;99.90;;;0.28;100.00;98583.09;5016458;28;20050;-75
2023/03/07 07:00:44;;;;;;;33.97;16.77;;;2.00;99.90;;;0.37;100.00;98574.97;4988308;28;20049;-77
2023/03/07 07:03:18;;;;;;;33.97;16.08;;;2.10;99.90;;;0.46;100.00;98571.16;4993447;28;20035;-76
2023/03/07 07:05:44;;;;;;;29.45;15.13;;;2.20;99.90;;;0.55;100.00;98568.19;5017769;28;20042;-76
2023/03/07 07:08:10;;;;;;;30.00;15.80;;;2.20;99.90;;;0.68;100.00;98560.78;4994450;28;20059;-75
2023/03/07 07:10:36;;;;;;;34.88;16.30;;;2.30;99.90;;;0.79;100.00;98560.34;4995648;28;20034;-76
2023/03/07 07:13:03;;;;;;;31.92;15.85;;;2.40;99.90;;;0.81;100.00;98555.94;4995876;28;20523;-76
2023/03/07 07:15:30;;;;;;;35.15;15.65;;;2.40;99.90;;;1.06;100.00;98553.16;5013585;28;20042;-76
2023/03/07 07:17:56;;;;;;;29.48;14.77;;;2.60;99.90;;;1.75;100.00;98555.31;4999016;28;20064;-76
2023/03/07 07:20:22;;;;;;;28.65;14.82;;;3.00;99.90;;;3.50;98.63;98561.56;4994422;28;20050;-76
2023/03/07 07:22:48;;;;;;;23.63;13.15;;;3.80;99.90;;;6.31;88.21;98566.22;4994475;28;20049;-76
2023/03/07 07:25:13;;;;;;;23.38;14.25;;;4.80;99.90;;;7.64;77.17;98560.91;5009661;28;20088;-77
2023/03/07 07:27:39;;;;;;;24.83;12.13;;;5.90;99.90;;;9.90;69.51;98578.50;5014516;28;20101;-76
2023/03/07 07:30:07;;;;;;;20.08;12.40;;;7.10;99.90;;;11.06;63.35;98575.41;4983297;28;20037;-76
2023/03/07 07:32:35;;;;;;;20.73;12.43;;;8.30;99.90;;;11.00;61.36;98557.47;4992096;28;20398;-76
2023/03/07 07:35:01;;;;;;;22.50;12.95;;;8.60;99.90;;;8.28;64.29;98539.81;4994444;28;20034;-75
2023/03/07 07:37:26;;;;;;;20.85;12.20;;;8.30;99.90;;;7.09;67.74;98526.25;4989552;28;20034;-75
2023/03/07 07:39:52;;;;;;;18.58;11.27;;;7.90;99.90;;;7.46;69.14;98536.84;5014291;28;20488;-74
2023/03/07 07:42:18;;;;;;;22.38;11.40;;;8.00;99.90;;;9.14;66.25;98541.41;4990680;28;20034;-76
2023/03/07 07:44:45;;;;;;;18.25;12.00;;;8.50;99.90;;;10.73;61.94;98548.22;4992629;28;20026;-75
2023/03/07 07:47:11;;;;;;;18.65;11.55;;;9.30;99.90;;;10.42;60.14;98536.75;4985266;28;20045;-75
2023/03/07 07:49:37;;;;;;;21.95;12.38;;;9.50;99.90;;;8.55;62.72;98528.31;4986945;28;20419;-75
2023/03/07 07:52:03;;;;;;;22.23;12.20;;;9.00;99.90;;;6.97;65.93;98509.59;4975076;28;20156;-74
2023/03/07 07:54:29;;;;;;;19.60;11.88;;;8.30;99.90;;;7.47;68.09;98514.09;4992949;28;20026;-74
2023/03/07 07:56:57;;;;;;;22.55;11.23;;;8.20;99.90;;;8.30;65.83;98516.97;5016672;28;20037;-74
2023/03/07 07:59:23;;;;;;;19.10;11.32;;;8.30;99.90;;;7.35;66.53;98514.00;4992696;28;20039;-74
2023/03/07 08:01:49;;;;;;;19.73;11.93;;;7.90;99.90;;;6.05;68.77;98488.66;4993504;28;20511;-74
2023/03/07 08:04:15;;;;;;;19.27;11.07;;;7.70;99.90;;;6.77;68.96;98494.41;4999123;28;20463;-75
2023/03/07 08:06:43;;;;;;;18.58;10.77;;;7.60;99.90;;;7.14;68.90;98494.53;5014183;28;20041;-74
2023/03/07 08:09:09;;;;;;;24.08;11.75;;;7.70;99.90;;;7.03;68.74;98483.97;5008893;28;20041;-74
2023/03/07 08:11:35;;;;;;;17.83;10.52;;;7.80;99.90;;;7.69;67.54;98503.81;4983779;28;20057;-73
2023/03/07 08:14:02;;;;;;;20.55;10.85;;;8.10;99.90;;;6.92;67.82;98489.94;5013022;28;20042;-74
2023/03/07 08:16:28;;;;;;;15.90;10.52;;;7.90;99.90;;;6.31;68.94;98473.91;5014483;28;20041;-74
2023/03/07 08:18:56;;;;;;;19.73;10.27;;;7.60;99.90;;;5.50;70.79;98470.22;4986595;28;20037;-74
2023/03/07 08:21:24;;;;;;;17.20;9.50;;;7.20;99.90;;;5.39;71.97;98470.06;5001462;28;20378;-74
2023/03/07 08:23:52;;;;;;;18.63;10.23;;;6.80;99.90;;;4.63;73.46;98465.88;4990546;28;20054;-75
2023/03/07 08:26:17;;;;;;;17.52;10.45;;;6.40;99.90;;;4.11;75.01;98458.47;4989734;28;20033;-73
2023/03/07 08:28:44;;;;;;;20.65;11.35;;;5.90;99.90;;;3.75;76.78;98463.94;4993713;28;20495;-74
2023/03/07 08:31:17;;;;;;;19.83;10.73;;;5.50;99.90;;;3.33;78.51;98471.38;4992664;28;20328;-74
2023/03/07 08:33:45;;;;;;;22.40;10.13;;;5.20;99.90;;;3.18;79.37;98461.78;4980792;28;20034;-74
2023/03/07 08:36:12;;;;;;;14.85;8.93;;;5.00;99.90;;;2.92;80.31;98466.56;4992382;28;20057;-75
2023/03/07 08:38:38;;;;;;;17.70;9.55;;;4.80;99.90;;;2.75;81.13;98445.81;4990636;28;20033;-74
2023/03/07 08:41:07;;;;;;;17.38;8.82;;;4.60;99.90;;;2.58;81.63;98454.44;4965002;28;20040;-74
2023/03/07 08:43:36;;;;;;;14.57;8.13;;;4.40;99.90;;;2.50;82.57;98459.19;5012344;28;20065;-74
2023/03/07 08:46:02;;;;;;;17.00;9.13;;;4.30;99.90;;;2.45;83.00;98434.28;5000609;28;20494;-75
2023/03/07 08:48:29;;;;;;;17.35;9.40;;;4.20;99.90;;;2.45;83.46;98428.25;4991658;28;20111;-74
2023/03/07 08:50:55;;;;;;;17.75;8.93;;;4.20;99.90;;;2.52;83.52;98421.81;4992010;28;20391;-74
2023/03/07 08:53:21;;;;;;;15.60;7.38;;;4.20;99.90;;;2.54;83.85;98419.16;4991353;28;20048;-75
2023/03/07 08:55:48;;;;;;;17.63;8.57;;;4.20;99.90;;;2.71;83.56;98421.72;4968316;28;20067;-74
2023/03/07 08:58:13;;;;;;;15.65;7.18;;;4.30;99.90;;;2.76;82.85;98424.09;4991210;28;20577;-75
2023/03/07 09:00:40;;;;;;;15.70;6.28;;;4.30;99.90;;;2.71;82.93;98410.50;4989745;28;20034;-75
2023/03/07 09:03:06;;;;;;;14.20;6.50;;;4.30;99.90;;;2.74;82.44;98407.72;4993232;28;20548;-75
2023/03/07 09:05:35;;;;;;;15.57;6.78;;;4.30;99.90;;;2.77;81.95;98413.63;4976612;28;20636;-75
2023/03/07 09:08:01;;;;;;;16.63;6.80;;;4.40;99.90;;;2.80;81.99;98416.03;4993075;28;20035;-76
2023/03/07 09:10:27;;;;;;;12.35;6.35;;;4.40;99.90;;;2.71;82.32;98415.69;4991436;28;20041;-76
2023/03/07 09:12:54;;;;;;;15.60;6.72;;;4.30;99.90;;;2.74;82.25;98405.13;5014123;28;20041;-76
2023/03/07 09:15:21;;;;;;;11.05;5.18;;;4.30;99.90;;;2.72;82.29;98404.38;4998022;28;20030;-76
2023/03/07 09:17:47;;;;;;;14.13;5.25;;;4.30;99.90;;;2.70;82.08;98401.00;4991522;28;20101;-76
2023/03/07 09:20:19;;;;;;;10.27;4.68;;;4.30;99.90;;;2.72;81.89;98404.38;4974131;28;20112;-77
2023/03/07 09:22:45;;;;;;;10.38;4.93;;;4.40;99.90;;;2.80;81.58;98404.81;4954154;28;20046;-77
2023/03/07 09:25:12;;;;;;;10.43;3.92;;;4.40;99.90;;;2.86;81.48;98391.50;4965183;28;20130;-76
2023/03/07 09:27:38;;;;;;;9.02;4.15;;;4.50;99.90;;;3.06;81.07;98386.09;4976463;28;20585;-77
2023/03/07 09:30:12;;;;;;;13.32;4.00;;;4.70;99.90;;;3.43;80.17;98398.88;5004452;28;20069;-77
2023/03/07 09:32:41;;;;;;;13.63;4.15;;;5.00;99.90;;;3.90;78.58;98403.22;4970095;28;20043;-77
2023/03/07 09:35:23;;;;;;;15.27;4.07;;;5.10;99.90;;;3.83;77.93;98397.50;4978127;28;20032;-77
2023/03/07 09:37:57;;;;;;;12.88;4.05;;;5.20;99.90;;;3.93;77.83;98390.03;4983115;28;20029;-77
2023/03/07 09:40:32;;;;;;;10.95;4.03;;;5.30;99.90;;;3.74;77.53;98384.16;4978417;28;20392;-78
2023/03/07 09:43:20;;;;;;;8.82;3.30;;;5.30;99.90;;;3.78;77.77;98389.13;4990593;28;20042;-78
2023/03/07 09:46:24;;;;;;;15.93;5.28;;;5.30;99.90;;;3.81;77.29;98395.94;4964998;28;20065;-79
2023/03/07 09:49:44;;;;;;;11.65;4.65;;;5.30;99.90;;;3.94;77.01;98393.47;5007021;28;20768;-78
2023/03/07 09:52:32;;;;;;;16.90;3.47;;;5.40;99.90;;;3.89;76.99;98389.34;4959687;28;20422;-77
2023/03/07 09:55:19;;;;;;;14.52;3.58;;;5.40;99.90;;;3.81;76.97;98393.31;4966568;28;20068;-78
2023/03/07 09:57:57;;;;;;;10.90;3.20;;;5.30;99.90;;;3.76;77.44;98385.78;4981650;28;20061;-79
2023/03/07 10:00:35;;;;;;;8.00;3.13;;;5.30;99.90;;;3.73;77.34;98387.69;4983194;28;20065;-80
2023/03/07 10:03:37;;;;;;;12.02;3.30;;;5.30;99.90;;;3.70;76.81;98378.31;4978680;28;20041;-80
2023/03/07 10:06:30;;;;;;;11.90;2.90;;;5.30;99.90;;;3.72;76.93;98394.69;4981326;28;20049;-79
2023/03/07 10:08:59;;;;;;;7.63;2.20;;;5.30;99.90;;;3.71;76.81;98382.56;4939919;28;20506;-79
2023/03/07 10:12:11;;;;;;;5.45;2.15;;;5.30;99.90;;;3.89;76.11;98391.13;4953342;28;20065;-80
2023/03/07 10:14:58;;;;;;;9.77;2.53;;;5.40;99.90;;;3.92;76.74;98387.50;4983293;28;20076;-81
2023/03/07 10:18:17;;;;;;;;;;;5.40;99.90;;;3.94;76.58;98394.31;4981456;28;20045;-80
2023/03/07 10:21:56;;;;;;;8.05;1.88;;;5.40;99.90;;;3.92;75.87;98395.31;4954681;28;19933;-83
2023/03/07 10:25:07;;;;;;;8.25;1.83;;;5.50;99.90;;;3.90;76.25;98393.63;4894455;28;20035;-84
2023/03/07 10:27:38;;;;;;;9.80;1.98;;;5.50;99.90;;;4.07;75.65;98399.66;4884231;28;20123;-80
2023/03/07 10:30:16;;;;;;;5.38;1.75;;;5.60;99.90;;;4.20;75.92;98395.41;4958278;28;20117;-82